Coria del Rio, Spain
Current Conditions -  °F | °C
As of 9:00 AM on Saturday 25 Oct 2014 (Local Time) from LEZL Reporting Station
Clear Clear  
Wind Chill: 59°   Ceiling: Unl
Heat Index: 59°   Visibility: 6mi
Dew Point: 50°   Wind: 3mph
Humidity: 72%   Direction: 40°NE
Pressure: 30"   Gusts: NA
Location:  37.29°N, 6.05°W
Report Text: LEZL 250700Z 04003KT 010V070 CAVOK 15/10 Q1016 NOSIG
Loading
Personal Weather Stations






























Interactive Weather Map
Tropical Storm Tracking
New forecast layout! Learn more

10-Day Weather Forecast

Advertisements
Track Severe Weather on mobile